Time;durP1;ratioP1;P1;durP2;ratioP2;P2;SDS_P1;SDS_P2;PMS_P1;PMS_P2;Temp;Humidity;BMP_temperature;BMP_pressure;BME280_temperature;BME280_humidity;BME280_pressure;Samples;Min_cycle;Max_cycle;Signal;HPM_P1;HPM_P2
2024/03/10 00:00:20;;;;;;;22.00;15.30;;;;;22.10;98742.00;;;;2050983;28;20239;-60
2024/03/10 00:01:21;;;;;;;21.40;15.50;;;;;22.10;98743.00;;;;2058310;28;20225;-60
2024/03/10 00:02:22;;;;;;;19.50;14.60;;;;;22.10;98743.00;;;;2047446;28;20230;-60
2024/03/10 00:03:22;;;;;;;20.35;15.45;;;;;22.10;98740.00;;;;2057084;28;20245;-60
2024/03/10 00:04:22;;;;;;;19.47;14.73;;;;;22.10;98741.00;;;;2056397;28;20229;-60
2024/03/10 00:05:23;;;;;;;20.23;15.60;;;;;22.10;98740.00;;;;2068263;28;20735;-60
2024/03/10 00:06:24;;;;;;;21.80;15.77;;;;;22.10;98680.00;;;;2065704;28;20879;-60
2024/03/10 00:07:25;;;;;;;20.00;15.90;;;;;22.10;98745.00;;;;2053494;28;20221;-60
2024/03/10 00:08:26;;;;;;;20.55;14.55;;;;;22.10;98743.00;;;;2055721;28;20539;-60
2024/03/10 00:09:26;;;;;;;20.17;14.90;;;;;22.00;98741.00;;;;2061442;28;20228;-60
2024/03/10 00:10:27;;;;;;;19.50;14.37;;;;;22.00;98697.00;;;;2069074;28;20308;-60
2024/03/10 00:11:27;;;;;;;20.60;15.90;;;;;22.00;98737.00;;;;2055895;28;20246;-60
2024/03/10 00:12:27;;;;;;;19.67;15.13;;;;;22.00;98729.00;;;;2045132;28;20220;-60
2024/03/10 00:13:28;;;;;;;18.63;14.67;;;;;22.00;98721.00;;;;2054055;28;20382;-60
2024/03/10 00:14:28;;;;;;;19.83;14.83;;;;;22.00;98722.00;;;;2052672;28;20211;-60
2024/03/10 00:15:30;;;;;;;22.57;16.03;;;;;22.00;98669.00;;;;2052906;28;20215;-60
2024/03/10 00:16:31;;;;;;;19.67;14.48;;;;;22.00;98727.00;;;;2045985;28;20220;-60
2024/03/10 00:17:31;;;;;;;19.53;14.80;;;;;22.00;98728.00;;;;2046944;28;20240;-60
2024/03/10 00:18:32;;;;;;;18.90;14.33;;;;;22.00;98731.00;;;;2061194;28;20462;-60
2024/03/10 00:19:32;;;;;;;15.70;13.00;;;;;22.00;98732.00;;;;2058389;28;20210;-60
2024/03/10 00:20:33;;;;;;;18.60;15.00;;;;;22.00;98734.00;;;;2061666;28;20281;-60
2024/03/10 00:21:33;;;;;;;21.37;15.20;;;;;22.00;98731.00;;;;2052577;28;20218;-62
2024/03/10 00:22:38;;;;;;;20.83;14.00;;;;;22.00;98732.00;;;;2045539;28;20560;-61
2024/03/10 00:23:40;;;;;;;20.02;13.90;;;;;22.00;98732.00;;;;2061424;28;20274;-60
2024/03/10 00:24:42;;;;;;;18.33;13.98;;;;;22.00;98734.00;;;;2057479;28;20214;-60
2024/03/10 00:25:43;;;;;;;17.42;14.02;;;;;22.00;98738.00;;;;2060007;28;20207;-60
2024/03/10 00:26:43;;;;;;;20.07;14.13;;;;;21.90;98729.00;;;;2060440;28;20283;-60
2024/03/10 00:27:44;;;;;;;15.90;13.40;;;;;22.00;98723.00;;;;2053008;28;20284;-60
2024/03/10 00:28:44;;;;;;;18.93;14.10;;;;;22.00;98727.00;;;;2045162;28;20201;-60
2024/03/10 00:29:45;;;;;;;17.70;12.80;;;;;22.00;98581.00;;;;2043807;28;20211;-60
2024/03/10 00:30:48;;;;;;;15.27;12.70;;;;;22.00;98729.00;;;;2061709;28;20569;-60
2024/03/10 00:31:48;;;;;;;18.55;13.30;;;;;21.90;98728.00;;;;2060295;28;20239;-60
2024/03/10 00:32:48;;;;;;;17.07;12.83;;;;;21.90;98728.00;;;;2061598;28;20596;-60
2024/03/10 00:33:49;;;;;;;16.77;12.80;;;;;21.90;98727.00;;;;2048574;28;20214;-60
2024/03/10 00:34:49;;;;;;;15.70;12.57;;;;;21.90;98731.00;;;;2055403;28;20210;-60
2024/03/10 00:35:49;;;;;;;18.00;14.60;;;;;21.90;98728.00;;;;2063775;28;20211;-60
2024/03/10 00:36:50;;;;;;;15.90;12.53;;;;;21.90;98723.00;;;;2061671;28;20233;-60
2024/03/10 00:37:50;;;;;;;17.50;13.57;;;;;21.90;98731.00;;;;2061573;28;20293;-60
2024/03/10 00:38:51;;;;;;;16.30;12.33;;;;;21.90;98734.00;;;;2051803;28;20207;-60
2024/03/10 00:39:51;;;;;;;16.13;13.23;;;;;21.90;98731.00;;;;2060701;28;20960;-59
2024/03/10 00:40:51;;;;;;;17.43;13.73;;;;;21.90;98734.00;;;;2052888;28;20226;-60
2024/03/10 00:41:52;;;;;;;18.13;12.90;;;;;21.90;98731.00;;;;2060268;28;20199;-59
2024/03/10 00:42:53;;;;;;;16.50;11.90;;;;;21.90;98728.00;;;;2061622;28;20614;-60
2024/03/10 00:43:54;;;;;;;17.15;12.95;;;;;21.90;98726.00;;;;2052361;28;20231;-60
2024/03/10 00:44:54;;;;;;;16.90;11.63;;;;;21.90;98730.00;;;;2060857;28;20219;-60
2024/03/10 00:45:54;;;;;;;16.37;12.27;;;;;21.90;98734.00;;;;2061258;28;20214;-59
2024/03/10 00:46:54;;;;;;;16.33;12.03;;;;;21.90;98735.00;;;;2052862;28;20211;-60
2024/03/10 00:47:55;;;;;;;14.70;12.03;;;;;21.90;98722.00;;;;2049677;28;20231;-60
2024/03/10 00:48:55;;;;;;;15.00;11.40;;;;;21.90;98728.00;;;;2051570;28;20218;-60
2024/03/10 00:49:56;;;;;;;14.40;11.60;;;;;21.90;98727.00;;;;2060998;28;20591;-60
2024/03/10 00:50:56;;;;;;;18.20;11.90;;;;;21.90;98724.00;;;;2052788;28;20219;-61
2024/03/10 00:51:56;;;;;;;13.20;11.53;;;;;21.90;98727.00;;;;2053292;28;20323;-59
2024/03/10 00:52:57;;;;;;;15.53;10.90;;;;;21.90;98735.00;;;;2066142;28;20215;-59
2024/03/10 00:53:57;;;;;;;15.90;11.73;;;;;21.90;98725.00;;;;2053164;28;20218;-60
2024/03/10 00:54:58;;;;;;;15.43;11.73;;;;;21.90;98728.00;;;;2064799;28;20229;-59
2024/03/10 00:55:58;;;;;;;15.33;11.97;;;;;21.90;98723.00;;;;2061992;28;20246;-59
2024/03/10 00:56:58;;;;;;;16.30;11.83;;;;;21.90;98729.00;;;;2062168;28;20219;-59
2024/03/10 00:57:59;;;;;;;12.80;10.03;;;;;21.90;98695.00;;;;2061743;28;20219;-59
2024/03/10 00:59:00;;;;;;;12.77;10.90;;;;;21.90;98720.00;;;;2049055;28;20271;-60
2024/03/10 01:00:00;;;;;;;14.77;10.17;;;;;21.80;98726.00;;;;2058273;28;21028;-60
2024/03/10 01:01:01;;;;;;;16.80;11.00;;;;;21.80;98723.00;;;;2047580;28;20287;-59
2024/03/10 01:02:03;;;;;;;15.07;11.50;;;;;21.90;98714.00;;;;2046518;28;20213;-60
2024/03/10 01:03:06;;;;;;;13.38;10.43;;;;;21.80;98720.00;;;;2061778;28;20217;-60
2024/03/10 01:04:07;;;;;;;14.30;11.18;;;;;21.80;98733.00;;;;2041420;28;20294;-59
2024/03/10 01:05:09;;;;;;;12.32;10.50;;;;;21.80;98724.00;;;;2044474;28;20216;-59
2024/03/10 01:06:12;;;;;;;12.43;10.10;;;;;21.80;98727.00;;;;2050543;28;20247;-60
2024/03/10 01:07:12;;;;;;;15.05;10.73;;;;;21.80;98718.00;;;;2056428;28;20240;-60
2024/03/10 01:08:13;;;;;;;16.00;10.47;;;;;21.80;98716.00;;;;2047886;28;20220;-60
2024/03/10 01:09:18;;;;;;;14.37;10.33;;;;;21.80;98710.00;;;;2054241;28;20691;-60
2024/03/10 01:10:18;;;;;;;13.15;10.00;;;;;21.80;98715.00;;;;2060659;28;20273;-60
2024/03/10 01:11:18;;;;;;;15.10;10.67;;;;;21.90;98721.00;;;;2061137;28;20344;-60
2024/03/10 01:12:19;;;;;;;15.57;11.17;;;;;21.80;98721.00;;;;2050688;28;20219;-59
2024/03/10 01:13:19;;;;;;;14.70;10.60;;;;;21.80;98719.00;;;;2051661;28;20303;-59
2024/03/10 01:14:20;;;;;;;12.00;9.23;;;;;21.80;98713.00;;;;2053126;28;20237;-59
2024/03/10 01:15:24;;;;;;;14.52;9.82;;;;;21.80;98712.00;;;;2052161;28;20254;-59
2024/03/10 01:16:24;;;;;;;14.00;10.20;;;;;21.80;98717.00;;;;2045946;28;20224;-60
2024/03/10 01:17:25;;;;;;;13.60;9.93;;;;;21.80;98722.00;;;;2044150;28;20295;-59
2024/03/10 01:18:25;;;;;;;11.77;8.90;;;;;21.80;98705.00;;;;2045052;28;20707;-60
2024/03/10 01:19:26;;;;;;;12.97;10.13;;;;;21.80;98712.00;;;;2036357;28;20689;-59
2024/03/10 01:20:26;;;;;;;11.90;9.70;;;;;21.80;98717.00;;;;2061125;28;20223;-60
2024/03/10 01:21:27;;;;;;;12.10;9.77;;;;;21.80;98716.00;;;;2056538;28;20509;-59
2024/03/10 01:22:27;;;;;;;14.23;10.73;;;;;21.80;98720.00;;;;2061515;28;20234;-60
2024/03/10 01:23:27;;;;;;;14.37;10.67;;;;;21.80;98722.00;;;;2060854;28;20226;-59
2024/03/10 01:24:28;;;;;;;11.30;9.50;;;;;21.80;98722.00;;;;2051972;28;20215;-59
2024/03/10 01:25:28;;;;;;;13.57;10.53;;;;;21.80;98714.00;;;;2061043;28;20230;-60
2024/03/10 01:26:28;;;;;;;13.20;9.80;;;;;21.80;98718.00;;;;2054135;28;20302;-59
2024/03/10 01:27:29;;;;;;;12.37;9.20;;;;;21.80;98717.00;;;;2053088;28;20223;-60
2024/03/10 01:28:29;;;;;;;13.17;9.60;;;;;21.80;98724.00;;;;2061120;28;20223;-59
2024/03/10 01:29:30;;;;;;;14.27;9.37;;;;;21.80;98731.00;;;;2049984;28;20302;-59
2024/03/10 01:30:31;;;;;;;11.50;9.70;;;;;21.80;98720.00;;;;2068060;28;20241;-59
2024/03/10 01:31:31;;;;;;;11.80;8.50;;;;;21.70;98728.00;;;;2065781;28;20215;-59
2024/03/10 01:32:32;;;;;;;13.43;9.23;;;;;21.70;98725.00;;;;2067983;28;20210;-59
2024/03/10 01:33:33;;;;;;;12.10;8.87;;;;;21.70;98717.00;;;;2061449;28;20273;-60
2024/03/10 01:34:34;;;;;;;12.35;8.73;;;;;21.70;98720.00;;;;2051896;28;20787;-59
2024/03/10 01:35:35;;;;;;;12.48;9.55;;;;;21.80;98728.00;;;;2062141;28;20223;-64
2024/03/10 01:36:35;;;;;;;13.40;9.60;;;;;21.70;98724.00;;;;2054708;28;20220;-62
2024/03/10 01:37:37;;;;;;;11.80;8.63;;;;;21.70;98722.00;;;;2046873;28;20679;-60
2024/03/10 01:38:39;;;;;;;10.48;8.00;;;;;21.80;98717.00;;;;2046028;28;20223;-59
2024/03/10 01:39:39;;;;;;;11.48;9.40;;;;;21.70;98719.00;;;;2035151;28;20220;-59
2024/03/10 01:40:39;;;;;;;10.50;8.30;;;;;21.70;98709.00;;;;2047265;28;20234;-60
2024/03/10 01:41:40;;;;;;;11.83;8.77;;;;;21.70;98718.00;;;;2066920;28;20221;-59
2024/03/10 01:42:41;;;;;;;11.13;8.40;;;;;21.70;98708.00;;;;2063651;28;20231;-60
2024/03/10 01:43:47;;;;;;;11.35;8.82;;;;;21.70;98708.00;;;;2056727;28;20640;-61
2024/03/10 01:44:48;;;;;;;11.15;8.15;;;;;20.80;98703.00;;;;2036537;28;20264;-60
2024/03/10 01:45:52;;;;;;;10.40;8.50;;;;;21.80;98712.00;;;;2056081;28;20218;-59
2024/03/10 01:46:52;;;;;;;10.40;7.95;;;;;21.70;98701.00;;;;2061486;28;20635;-59
2024/03/10 01:47:55;;;;;;;11.20;8.87;;;;;21.70;98691.00;;;;2063658;28;20210;-59
2024/03/10 01:48:56;;;;;;;12.05;8.80;;;;;21.70;98693.00;;;;2040971;28;20224;-59
2024/03/10 01:49:56;;;;;;;10.90;8.20;;;;;21.70;98666.00;;;;2049875;28;20287;-59
2024/03/10 01:50:57;;;;;;;11.03;7.70;;;;;21.70;98691.00;;;;2046396;28;20270;-59
2024/03/10 01:51:57;;;;;;;12.02;8.20;;;;;21.70;98698.00;;;;2052256;28;20219;-59
2024/03/10 01:52:58;;;;;;;12.93;7.77;;;;;21.70;98698.00;;;;2045562;28;20692;-60
2024/03/10 01:53:59;;;;;;;10.80;8.30;;;;;21.70;98688.00;;;;2043557;28;20754;-59
2024/03/10 01:55:03;;;;;;;11.90;8.83;;;;;21.70;98686.00;;;;2057487;28;20231;-59
2024/03/10 01:56:05;;;;;;;11.93;8.57;;;;;21.70;98684.00;;;;2047740;28;20448;-59
2024/03/10 01:57:05;;;;;;;10.97;8.40;;;;;21.70;98681.00;;;;2049856;28;20644;-62
2024/03/10 01:58:05;;;;;;;9.17;7.97;;;;;21.70;98678.00;;;;2064063;28;20694;-60
2024/03/10 01:59:06;;;;;;;9.50;7.90;;;;;21.70;98688.00;;;;2050649;28;20219;-60
2024/03/10 02:00:08;;;;;;;10.63;8.15;;;;;21.70;98679.00;;;;2054959;28;21132;-59
2024/03/10 02:01:09;;;;;;;8.85;7.22;;;;;21.70;98676.00;;;;2060754;28;20218;-59
2024/03/10 02:02:09;;;;;;;10.90;7.68;;;;;21.70;98674.00;;;;2046223;28;20246;-59
2024/03/10 02:03:10;;;;;;;10.00;8.30;;;;;21.70;98678.00;;;;2060000;28;20229;-59
2024/03/10 02:04:11;;;;;;;10.53;8.13;;;;;21.70;98670.00;;;;2047355;28;20691;-60
2024/03/10 02:05:11;;;;;;;9.73;8.20;;;;;21.70;98674.00;;;;2041817;28;20468;-60
2024/03/10 02:06:12;;;;;;;12.33;7.70;;;;;21.70;98672.00;;;;2038066;28;20935;-60
2024/03/10 02:07:12;;;;;;;9.05;7.40;;;;;21.70;98681.00;;;;2052747;28;20306;-60
2024/03/10 02:08:16;;;;;;;10.80;7.17;;;;;21.70;98631.00;;;;2053930;28;20265;-60
2024/03/10 02:09:18;;;;;;;10.82;7.93;;;;;21.70;98681.00;;;;2039067;28;20235;-60
2024/03/10 02:10:19;;;;;;;11.85;8.30;;;;;21.70;98679.00;;;;2052309;28;20236;-61
2024/03/10 02:11:20;;;;;;;10.80;7.50;;;;;21.70;98675.00;;;;2052492;28;20285;-60
2024/03/10 02:12:20;;;;;;;10.50;8.32;;;;;21.70;98670.00;;;;2057353;28;20211;-60
2024/03/10 02:13:22;;;;;;;11.73;8.10;;;;;21.70;98678.00;;;;2052712;28;20243;-60
2024/03/10 02:14:25;;;;;;;10.63;7.82;;;;;21.00;98673.00;;;;2042805;28;20227;-59
2024/03/10 02:15:25;;;;;;;10.40;8.02;;;;;21.70;98669.00;;;;2042829;28;20247;-59
2024/03/10 02:16:28;;;;;;;9.30;6.97;;;;;21.70;98668.00;;;;2060412;28;20227;-59
2024/03/10 02:17:28;;;;;;;11.45;8.02;;;;;21.60;98712.00;;;;2052321;28;20231;-59
2024/03/10 02:18:29;;;;;;;12.30;7.87;;;;;21.60;98667.00;;;;2045144;28;20291;-59
2024/03/10 02:19:30;;;;;;;9.43;7.53;;;;;21.70;98667.00;;;;2041992;28;20223;-59
2024/03/10 02:20:32;;;;;;;8.47;7.20;;;;;21.70;98668.00;;;;2052638;28;20250;-60
2024/03/10 02:21:32;;;;;;;9.00;7.00;;;;;21.60;98663.00;;;;2057538;28;20233;-59
2024/03/10 02:22:33;;;;;;;8.80;6.60;;;;;21.60;98657.00;;;;2062065;28;20237;-59
2024/03/10 02:23:40;;;;;;;8.97;7.30;;;;;21.70;98660.00;;;;2059179;28;20237;-59
2024/03/10 02:24:43;;;;;;;9.55;7.75;;;;;21.70;98656.00;;;;2044445;28;20219;-60
2024/03/10 02:25:45;;;;;;;9.68;6.80;;;;;21.70;98665.00;;;;2051017;28;20572;-59
2024/03/10 02:26:46;;;;;;;8.70;6.75;;;;;21.70;98653.00;;;;2051481;28;21307;-59
2024/03/10 02:27:50;;;;;;;9.50;7.27;;;;;21.60;98632.00;;;;2057076;28;20251;-60
2024/03/10 02:29:14;;;;;;;8.45;6.82;;;;;21.60;98649.00;;;;2039227;28;20207;-60
2024/03/10 02:47:13;;;;;;;8.60;6.90;;;;;21.60;98610.00;;;;2060232;28;20316;-59
2024/03/10 02:48:14;;;;;;;8.40;6.10;;;;;21.60;98607.00;;;;2043745;28;20223;-60
2024/03/10 02:49:14;;;;;;;8.93;6.53;;;;;21.60;98609.00;;;;2035943;28;20274;-60
2024/03/10 02:50:15;;;;;;;9.10;6.83;;;;;21.60;98617.00;;;;2044140;28;20349;-59
2024/03/10 02:51:15;;;;;;;7.97;6.03;;;;;21.60;98620.00;;;;2060451;28;20254;-59
2024/03/10 02:52:16;;;;;;;8.03;6.40;;;;;21.60;98613.00;;;;2061621;28;20208;-59
2024/03/10 02:53:16;;;;;;;9.30;6.70;;;;;21.60;98624.00;;;;2050881;28;20216;-60
2024/03/10 02:54:16;;;;;;;8.13;6.50;;;;;21.60;98606.00;;;;2047308;28;20603;-59
2024/03/10 02:55:17;;;;;;;9.20;7.30;;;;;21.60;98610.00;;;;2050733;28;20438;-60
2024/03/10 02:56:24;;;;;;;10.47;6.23;;;;;21.50;98610.00;;;;2058696;28;20226;-59
2024/03/10 02:57:25;;;;;;;8.52;6.32;;;;;21.50;98622.00;;;;2044293;28;20205;-59
2024/03/10 02:58:25;;;;;;;7.40;6.00;;;;;21.50;98606.00;;;;2044111;28;20216;-59
2024/03/10 02:59:25;;;;;;;6.50;5.37;;;;;21.50;98605.00;;;;2058370;28;20721;-60
2024/03/10 03:00:26;;;;;;;8.60;6.40;;;;;21.60;98611.00;;;;2068379;28;20420;-59
2024/03/10 03:01:26;;;;;;;9.00;6.00;;;;;21.50;98609.00;;;;2051858;28;20706;-59
2024/03/10 03:02:29;;;;;;;7.80;6.40;;;;;21.60;98602.00;;;;2064955;28;20257;-59
2024/03/10 03:03:29;;;;;;;8.10;6.20;;;;;21.50;98602.00;;;;2055234;28;20238;-59
2024/03/10 03:04:30;;;;;;;6.97;5.63;;;;;21.50;98604.00;;;;2033965;28;20227;-59
2024/03/10 03:05:31;;;;;;;8.50;6.38;;;;;21.50;98601.00;;;;2053840;28;20223;-59
2024/03/10 03:06:31;;;;;;;7.77;6.10;;;;;21.50;98329.00;;;;2054080;28;20606;-59
2024/03/10 03:07:33;;;;;;;8.10;6.10;;;;;21.50;98595.00;;;;2062070;28;20582;-59
2024/03/10 03:08:33;;;;;;;7.25;5.85;;;;;21.50;98598.00;;;;2063270;28;20297;-60
2024/03/10 03:09:34;;;;;;;8.50;6.87;;;;;21.50;98604.00;;;;2056377;28;20234;-59
2024/03/10 03:10:35;;;;;;;8.20;5.75;;;;;21.50;98600.00;;;;2053511;28;20668;-59
2024/03/10 03:11:35;;;;;;;8.67;6.43;;;;;21.50;98593.00;;;;2053659;28;20231;-60
2024/03/10 03:12:36;;;;;;;9.00;5.50;;;;;21.50;98593.00;;;;2062003;28;20272;-59
2024/03/10 03:13:36;;;;;;;8.17;5.90;;;;;21.50;98597.00;;;;2052678;28;20234;-59
2024/03/10 03:14:37;;;;;;;7.70;5.70;;;;;21.50;98594.00;;;;2048601;28;20233;-60
2024/03/10 03:15:38;;;;;;;7.90;5.60;;;;;21.00;98608.00;;;;2076497;28;20229;-64
2024/03/10 03:16:38;;;;;;;7.33;5.63;;;;;21.60;98592.00;;;;2053417;28;20223;-59
2024/03/10 03:17:41;;;;;;;7.80;5.83;;;;;21.50;98596.00;;;;2053964;28;20862;-59
2024/03/10 03:18:45;;;;;;;8.05;6.43;;;;;21.50;98597.00;;;;2062981;28;20259;-60
2024/03/10 03:19:45;;;;;;;8.38;6.03;;;;;21.50;98600.00;;;;2044791;28;20258;-60
2024/03/10 03:20:46;;;;;;;8.90;5.87;;;;;21.50;98600.00;;;;2053475;28;20219;-60
2024/03/10 03:21:47;;;;;;;8.52;6.15;;;;;21.50;98593.00;;;;2061797;28;20222;-60
2024/03/10 03:22:48;;;;;;;6.93;5.40;;;;;21.50;98591.00;;;;2062662;28;20214;-60
2024/03/10 03:23:48;;;;;;;6.63;5.30;;;;;21.50;98608.00;;;;2052333;28;20302;-61
2024/03/10 03:24:49;;;;;;;6.47;5.23;;;;;21.50;98603.00;;;;2043100;28;20228;-61
2024/03/10 03:25:49;;;;;;;6.23;4.83;;;;;21.50;98596.00;;;;2061789;28;20211;-60
2024/03/10 03:26:51;;;;;;;8.00;5.90;;;;;21.50;98597.00;;;;2070212;28;20234;-60
2024/03/10 03:27:52;;;;;;;7.40;5.72;;;;;21.50;98589.00;;;;2067891;28;20217;-60
2024/03/10 03:28:52;;;;;;;8.20;5.63;;;;;21.50;98587.00;;;;2056761;28;20472;-61
2024/03/10 03:29:52;;;;;;;7.60;5.90;;;;;21.50;98599.00;;;;2059626;28;20212;-60
2024/03/10 03:30:55;;;;;;;8.23;5.87;;;;;21.50;98588.00;;;;2060103;28;20250;-60
2024/03/10 03:31:55;;;;;;;6.93;5.78;;;;;21.50;98592.00;;;;2063345;28;20921;-60
2024/03/10 03:32:56;;;;;;;7.17;5.13;;;;;21.50;98589.00;;;;2060266;28;20218;-60
2024/03/10 03:33:56;;;;;;;6.20;5.20;;;;;21.50;98587.00;;;;2045950;28;20265;-59
2024/03/10 03:34:57;;;;;;;7.37;5.33;;;;;21.50;98577.00;;;;2061408;28;20206;-59
2024/03/10 03:36:00;;;;;;;6.80;5.37;;;;;21.50;98577.00;;;;2062650;28;20230;-60
2024/03/10 03:37:02;;;;;;;7.40;5.75;;;;;21.50;98576.00;;;;2062198;28;20536;-59
2024/03/10 03:38:03;;;;;;;6.38;5.28;;;;;21.50;98585.00;;;;2064882;28;20214;-59
2024/03/10 03:39:05;;;;;;;7.10;6.00;;;;;21.50;98570.00;;;;2054014;28;20245;-60
2024/03/10 03:40:15;;;;;;;7.20;5.28;;;;;21.40;98570.00;;;;2062048;28;20462;-59
2024/03/10 03:41:15;;;;;;;6.90;5.35;;;;;21.40;98574.00;;;;2059601;28;20872;-59
2024/03/10 03:42:16;;;;;;;6.93;5.30;;;;;21.40;98580.00;;;;2061718;28;20211;-60
2024/03/10 03:43:16;;;;;;;7.13;5.13;;;;;21.40;98570.00;;;;2061188;28;20223;-60
2024/03/10 03:44:18;;;;;;;6.57;5.40;;;;;21.50;98580.00;;;;2052356;28;20266;-60
2024/03/10 03:45:19;;;;;;;7.60;5.30;;;;;21.40;98568.00;;;;2059802;28;20250;-60
2024/03/10 03:46:19;;;;;;;6.90;5.10;;;;;21.50;98558.00;;;;2056428;28;20215;-60
2024/03/10 03:47:19;;;;;;;6.30;5.07;;;;;21.50;98577.00;;;;2053789;28;20258;-60
2024/03/10 03:48:22;;;;;;;7.10;5.37;;;;;21.40;98570.00;;;;2054817;28;20212;-60
2024/03/10 03:49:23;;;;;;;5.35;4.60;;;;;21.40;98578.00;;;;2043280;28;20239;-60
2024/03/10 03:50:26;;;;;;;8.27;5.35;;;;;21.40;98570.00;;;;2052715;28;20219;-60
2024/03/10 03:51:27;;;;;;;5.90;4.80;;;;;21.40;98559.00;;;;2056802;28;20273;-60
2024/03/10 03:52:27;;;;;;;8.53;5.73;;;;;21.40;98566.00;;;;2055867;28;25617;-60
2024/03/10 03:53:27;;;;;;;5.43;4.60;;;;;21.40;98558.00;;;;2045771;28;20287;-60
2024/03/10 03:54:31;;;;;;;6.73;5.20;;;;;21.40;98565.00;;;;2034548;28;20220;-60
2024/03/10 03:55:31;;;;;;;7.30;5.55;;;;;21.40;98560.00;;;;2036990;28;20690;-60
2024/03/10 03:56:32;;;;;;;7.00;5.00;;;;;21.40;98555.00;;;;2048603;28;20282;-60
2024/03/10 03:57:33;;;;;;;6.77;5.20;;;;;21.40;98557.00;;;;2057351;28;20212;-60
2024/03/10 03:58:34;;;;;;;6.85;5.35;;;;;21.40;98557.00;;;;2045277;28;20216;-60
2024/03/10 03:59:35;;;;;;;7.25;5.07;;;;;21.40;98553.00;;;;2038756;28;20267;-59
2024/03/10 04:00:36;;;;;;;6.25;5.28;;;;;21.40;98557.00;;;;2045945;28;20332;-59
2024/03/10 04:01:37;;;;;;;7.87;4.50;;;;;21.40;98548.00;;;;2053438;28;20572;-59
2024/03/10 04:02:39;;;;;;;7.78;5.50;;;;;21.40;98556.00;;;;2053142;28;20463;-60
2024/03/10 04:03:40;;;;;;;7.32;5.53;;;;;21.40;98550.00;;;;2052968;28;21062;-60
2024/03/10 04:04:40;;;;;;;7.90;5.20;;;;;21.40;98499.00;;;;2055206;28;20296;-59
2024/03/10 04:05:41;;;;;;;5.67;4.37;;;;;21.40;98557.00;;;;2045937;28;20700;-60
2024/03/10 04:06:42;;;;;;;6.43;4.90;;;;;21.40;98547.00;;;;2049865;28;20688;-60
2024/03/10 04:07:42;;;;;;;6.85;4.97;;;;;21.40;98509.00;;;;2049901;28;20219;-60
2024/03/10 04:08:43;;;;;;;8.50;6.40;;;;;21.40;98558.00;;;;2052582;28;20298;-59
2024/03/10 04:09:43;;;;;;;6.03;4.80;;;;;21.40;98549.00;;;;2036788;28;20327;-60
2024/03/10 04:10:44;;;;;;;6.80;4.50;;;;;21.40;98554.00;;;;2061726;28;20697;-60
2024/03/10 04:11:44;;;;;;;6.70;5.03;;;;;21.40;98554.00;;;;2053368;28;20298;-60
2024/03/10 04:12:44;;;;;;;6.13;4.73;;;;;21.40;98556.00;;;;2038987;28;20219;-60
2024/03/10 04:13:46;;;;;;;7.50;5.33;;;;;21.40;98560.00;;;;2054459;28;20199;-59
2024/03/10 04:14:49;;;;;;;6.15;4.53;;;;;21.40;98565.00;;;;2047011;28;20687;-59
2024/03/10 04:15:49;;;;;;;6.40;4.72;;;;;21.40;98553.00;;;;2051638;28;20232;-60
2024/03/10 04:16:53;;;;;;;6.17;4.40;;;;;21.40;98540.00;;;;2037042;29;20640;-60
2024/03/10 04:17:54;;;;;;;7.78;4.78;;;;;21.40;98550.00;;;;2039666;28;20208;-59
2024/03/10 04:18:54;;;;;;;7.07;5.10;;;;;21.40;98547.00;;;;2042188;28;20723;-60
2024/03/10 04:19:55;;;;;;;7.90;5.17;;;;;21.30;98553.00;;;;2053744;28;20943;-59
2024/03/10 04:20:56;;;;;;;6.87;5.00;;;;;21.30;98536.00;;;;2054060;28;20215;-59
2024/03/10 04:21:56;;;;;;;6.20;4.83;;;;;21.40;98549.00;;;;2056649;28;20251;-59
2024/03/10 04:22:57;;;;;;;6.50;4.57;;;;;21.30;98546.00;;;;2053791;28;20598;-59
2024/03/10 04:23:59;;;;;;;6.30;5.07;;;;;21.30;98538.00;;;;2032235;28;20211;-59
2024/03/10 04:24:59;;;;;;;6.15;4.93;;;;;21.30;98545.00;;;;2047857;28;20295;-60
2024/03/10 04:26:00;;;;;;;8.17;5.07;;;;;21.40;98550.00;;;;2048677;28;20599;-60
2024/03/10 04:27:00;;;;;;;6.83;4.80;;;;;21.40;98549.00;;;;2053349;28;20580;-61
2024/03/10 04:28:03;;;;;;;6.00;4.70;;;;;21.40;98549.00;;;;2045404;28;20222;-60
2024/03/10 04:29:04;;;;;;;7.35;4.53;;;;;21.30;98316.00;;;;2031074;28;20228;-60
2024/03/10 04:30:06;;;;;;;6.23;4.63;;;;;21.30;98547.00;;;;2060723;28;20229;-60
2024/03/10 04:31:06;;;;;;;5.47;3.90;;;;;21.40;98549.00;;;;2060157;28;20667;-61
2024/03/10 04:32:06;;;;;;;7.27;4.80;;;;;21.40;98546.00;;;;2054278;28;20294;-60
2024/03/10 04:33:08;;;;;;;6.33;4.50;;;;;21.30;98542.00;;;;2053558;28;20366;-60
2024/03/10 04:34:09;;;;;;;6.07;4.63;;;;;21.30;98534.00;;;;2047545;28;20649;-60
2024/03/10 04:35:12;;;;;;;6.55;4.43;;;;;21.40;98537.00;;;;2048102;28;20223;-61
2024/03/10 04:36:12;;;;;;;6.07;4.63;;;;;21.30;98498.00;;;;2051942;28;20231;-60
2024/03/10 04:37:12;;;;;;;6.60;4.70;;;;;21.40;98526.00;;;;2050115;28;20845;-60
2024/03/10 04:38:13;;;;;;;5.77;4.60;;;;;21.30;98535.00;;;;2054973;28;20226;-59
2024/03/10 04:39:13;;;;;;;6.03;4.73;;;;;21.30;98531.00;;;;2041510;28;20258;-59
2024/03/10 04:40:16;;;;;;;5.83;4.60;;;;;21.30;98540.00;;;;2058577;28;20223;-60
2024/03/10 04:41:16;;;;;;;6.70;4.57;;;;;21.30;98534.00;;;;2055842;28;20211;-60
2024/03/10 04:42:17;;;;;;;5.97;5.00;;;;;21.30;98526.00;;;;2052965;28;21105;-59
2024/03/10 04:43:17;;;;;;;6.10;4.43;;;;;21.30;98531.00;;;;2055141;28;20220;-60
2024/03/10 04:44:19;;;;;;;6.03;4.37;;;;;21.30;98534.00;;;;2040906;28;20239;-60
2024/03/10 04:45:20;;;;;;;8.57;4.40;;;;;21.30;98526.00;;;;2052882;28;21089;-59
2024/03/10 04:46:20;;;;;;;6.43;4.80;;;;;21.30;98535.00;;;;2052738;28;20243;-59
2024/03/10 04:47:20;;;;;;;6.70;4.57;;;;;21.30;98518.00;;;;2051594;28;20241;-59
2024/03/10 04:48:21;;;;;;;7.20;4.67;;;;;21.30;98526.00;;;;2049991;28;20215;-59
2024/03/10 04:49:21;;;;;;;6.70;4.90;;;;;21.30;98522.00;;;;2049769;28;20314;-59
2024/03/10 04:50:21;;;;;;;6.13;4.80;;;;;21.30;98515.00;;;;2053983;28;20211;-58
2024/03/10 04:51:22;;;;;;;5.90;4.17;;;;;21.30;98527.00;;;;2048898;28;20299;-59
2024/03/10 04:52:22;;;;;;;5.90;4.43;;;;;21.30;98530.00;;;;2052666;28;20223;-59
2024/03/10 04:53:22;;;;;;;5.37;3.90;;;;;21.30;98521.00;;;;2054562;28;20211;-59
2024/03/10 04:54:23;;;;;;;6.43;4.77;;;;;21.30;98523.00;;;;2042048;28;20287;-59
2024/03/10 04:55:24;;;;;;;6.47;4.90;;;;;21.30;98525.00;;;;2051804;28;20208;-59
2024/03/10 04:56:24;;;;;;;5.03;4.33;;;;;21.30;98528.00;;;;2052854;28;20491;-60
2024/03/10 04:57:25;;;;;;;4.80;3.90;;;;;21.30;98515.00;;;;2047290;28;20222;-59
2024/03/10 04:58:26;;;;;;;6.07;4.57;;;;;21.30;98523.00;;;;2048546;28;20227;-60
2024/03/10 04:59:27;;;;;;;6.90;4.78;;;;;21.30;98522.00;;;;2043306;28;20227;-60
2024/03/10 05:00:27;;;;;;;6.37;4.43;;;;;21.30;98522.00;;;;2053070;28;20235;-59
2024/03/10 05:01:28;;;;;;;7.13;5.10;;;;;21.30;98518.00;;;;2047120;28;20219;-60
2024/03/10 05:02:30;;;;;;;5.47;4.10;;;;;21.30;98544.00;;;;2043194;28;20308;-59
2024/03/10 05:03:30;;;;;;;6.53;4.70;;;;;21.20;98521.00;;;;2051512;28;20968;-59
2024/03/10 05:04:30;;;;;;;6.53;4.73;;;;;21.20;98520.00;;;;2050788;28;20219;-59
2024/03/10 05:05:32;;;;;;;5.93;4.60;;;;;21.20;98512.00;;;;2052955;28;20219;-60
2024/03/10 05:06:34;;;;;;;6.28;4.50;;;;;21.20;98517.00;;;;2056150;28;20215;-60
2024/03/10 05:07:35;;;;;;;6.53;4.53;;;;;21.30;98513.00;;;;2056490;28;20231;-60
2024/03/10 05:08:36;;;;;;;6.30;4.18;;;;;21.30;98505.00;;;;2053249;28;20239;-59
2024/03/10 05:09:36;;;;;;;5.27;4.37;;;;;21.30;98501.00;;;;2042826;28;20215;-59
2024/03/10 05:10:36;;;;;;;6.83;4.33;;;;;21.30;98505.00;;;;2053418;28;20266;-59
2024/03/10 05:11:37;;;;;;;5.90;4.03;;;;;21.20;98507.00;;;;2053975;28;20255;-60
2024/03/10 05:12:38;;;;;;;5.60;4.37;;;;;21.30;98498.00;;;;2050888;28;20228;-60
2024/03/10 05:13:39;;;;;;;5.72;4.35;;;;;21.20;98504.00;;;;2053573;28;20671;-59
2024/03/10 05:14:39;;;;;;;5.90;4.10;;;;;21.30;98502.00;;;;2049342;28;20230;-59
2024/03/10 05:15:42;;;;;;;6.53;4.37;;;;;21.20;98497.00;;;;2052783;28;20282;-59
2024/03/10 05:16:43;;;;;;;5.25;4.35;;;;;21.30;98505.00;;;;2057912;28;20294;-59
2024/03/10 05:17:43;;;;;;;5.47;4.35;;;;;21.20;98501.00;;;;2047545;28;20237;-59
2024/03/10 05:18:44;;;;;;;6.00;4.63;;;;;21.20;98498.00;;;;2046675;28;20767;-65
2024/03/10 05:19:44;;;;;;;6.80;4.33;;;;;21.20;98504.00;;;;2040159;28;20684;-63